createdAt,value
2019-04-16T00:01:21.571Z,101907.66
2019-04-16T00:05:30.879Z,101904.09
2019-04-16T00:09:38.927Z,101900.52
2019-04-16T00:13:44.284Z,101887.66
2019-04-16T00:17:48.130Z,101891.55
2019-04-16T00:22:02.465Z,101886.16
2019-04-16T00:26:07.512Z,101879.52
2019-04-16T00:30:11.653Z,101876.19
2019-04-16T00:34:15.251Z,101869.04
2019-04-16T00:38:22.464Z,101861.57
2019-04-16T00:42:24.340Z,101865.98
2019-04-16T00:46:27.935Z,101858.12
2019-04-16T00:50:31.586Z,101859.23
2019-04-16T00:54:35.168Z,101857.59
2019-04-16T00:58:38.776Z,101858.55
2019-04-16T01:02:42.798Z,101856.52
2019-04-16T01:06:46.415Z,101851.00
2019-04-16T01:10:50.078Z,101854.02
2019-04-16T01:14:56.302Z,101856.36
2019-04-16T01:18:59.093Z,101856.29
2019-04-16T01:23:02.811Z,101859.62
2019-04-16T01:27:06.532Z,101862.42
2019-04-16T01:31:26.737Z,101856.59
2019-04-16T01:35:37.511Z,101860.83
2019-04-16T01:39:47.397Z,101860.59
2019-04-16T01:43:48.223Z,101856.25
2019-04-16T01:47:51.946Z,101856.25
2019-04-16T01:51:55.551Z,101853.84
2019-04-16T01:55:59.372Z,101862.16
2019-04-16T02:00:06.777Z,101860.64
2019-04-16T02:04:08.545Z,101854.98
2019-04-16T02:08:12.069Z,101857.70
2019-04-16T02:12:15.668Z,101851.27
2019-04-16T02:16:19.215Z,101850.13
2019-04-16T02:20:22.793Z,101850.28
2019-04-16T02:24:26.415Z,101845.82
2019-04-16T02:28:30.021Z,101845.97
2019-04-16T02:32:33.636Z,101844.81
2019-04-16T02:36:37.253Z,101844.01
2019-04-16T02:40:40.867Z,101843.95
2019-04-16T02:44:48.852Z,101845.10
2019-04-16T02:48:51.496Z,101851.66
2019-04-16T02:52:59.793Z,101854.55
2019-04-16T02:57:07.916Z,101850.83
2019-04-16T03:01:20.431Z,101851.86
2019-04-16T03:05:22.609Z,101844.82
2019-04-16T03:09:26.239Z,101842.75
2019-04-16T03:13:30.046Z,101840.10
2019-04-16T03:17:35.636Z,101837.17
2019-04-16T03:21:39.324Z,101841.23
2019-04-16T03:25:44.436Z,101838.35
2019-04-16T03:29:48.392Z,101836.68
2019-04-16T03:33:52.111Z,101833.18
2019-04-16T03:37:55.824Z,101826.50
2019-04-16T03:41:59.444Z,101825.23
2019-04-16T03:46:03.293Z,101824.77
2019-04-16T03:50:07.620Z,101821.38
2019-04-16T03:54:11.705Z,101816.39
2019-04-16T03:58:15.541Z,101824.17
2019-04-16T04:02:22.178Z,101828.02
2019-04-16T04:06:24.497Z,101828.27
2019-04-16T04:10:30.951Z,101822.50
2019-04-16T04:14:33.505Z,101813.52
2019-04-16T04:18:37.081Z,101813.52
2019-04-16T04:22:40.807Z,101814.94
2019-04-16T04:26:44.407Z,101808.95
2019-04-16T04:30:48.966Z,101813.59
2019-04-16T04:34:52.676Z,101807.34
2019-04-16T04:38:56.581Z,101803.37
2019-04-16T04:43:00.947Z,101801.20
2019-04-16T04:47:05.245Z,101799.13
2019-04-16T04:51:09.147Z,101793.06
2019-04-16T04:55:12.882Z,101798.82
2019-04-16T04:59:16.598Z,101804.50
2019-04-16T05:03:24.826Z,101796.61
2019-04-16T05:07:29.350Z,101800.41
2019-04-16T05:11:33.175Z,101793.66
2019-04-16T05:15:36.888Z,101794.05
2019-04-16T05:19:43.765Z,101792.53
2019-04-16T05:23:45.957Z,101793.88
2019-04-16T05:27:49.572Z,101804.14
2019-04-16T05:31:54.534Z,101797.48
2019-04-16T05:35:59.438Z,101797.48
2019-04-16T05:40:05.192Z,101804.83
2019-04-16T05:44:08.841Z,101804.81
2019-04-16T05:48:12.864Z,101794.22
2019-04-16T05:52:16.681Z,101801.41
2019-04-16T05:56:30.630Z,101798.16
2019-04-16T06:00:41.752Z,101796.32
2019-04-16T06:04:43.905Z,101799.94
2019-04-16T06:08:47.518Z,101785.27
2019-04-16T06:12:59.855Z,101785.48
2019-04-16T06:17:13.689Z,101786.66
2019-04-16T06:21:31.024Z,101791.08
2019-04-16T06:25:41.276Z,101780.20
2019-04-16T06:29:57.588Z,101777.53
2019-04-16T06:34:23.431Z,101783.95
2019-04-16T06:38:42.114Z,101783.75
2019-04-16T06:42:58.863Z,101780.72
2019-04-16T06:47:04.081Z,101784.33
2019-04-16T06:51:12.646Z,101777.20
2019-04-16T06:55:34.772Z,101761.39
2019-04-16T06:59:53.322Z,101760.66
2019-04-16T07:03:59.880Z,101756.28
2019-04-16T07:08:11.100Z,101755.89
2019-04-16T07:12:16.350Z,101760.06
2019-04-16T07:16:19.964Z,101756.16
2019-04-16T07:20:23.579Z,101746.59
2019-04-16T07:24:30.797Z,101752.28
2019-04-16T07:28:34.494Z,101751.27
2019-04-16T07:32:54.696Z,101737.36
2019-04-16T07:37:02.487Z,101728.76
2019-04-16T07:41:16.876Z,101728.02
2019-04-16T07:45:20.901Z,101723.19
2019-04-16T07:49:29.124Z,101724.82
2019-04-16T07:53:47.457Z,101714.02
2019-04-16T07:57:51.916Z,101716.48
2019-04-16T08:01:55.795Z,101708.44
2019-04-16T08:05:59.445Z,101712.70
2019-04-16T08:10:03.440Z,101706.30
2019-04-16T08:14:09.830Z,101715.42
2019-04-16T08:18:12.533Z,101720.31
2019-04-16T08:22:16.771Z,101723.81
2019-04-16T08:26:20.496Z,101715.24
2019-04-16T08:30:24.096Z,101718.94
2019-04-16T08:34:27.814Z,101712.48
2019-04-16T08:38:34.280Z,101718.18
2019-04-16T08:42:44.484Z,101712.30
2019-04-16T08:46:43.063Z,101716.95
2019-04-16T08:50:49.339Z,101718.23
2019-04-16T08:54:54.866Z,101712.66
2019-04-16T08:59:00.901Z,101702.36
2019-04-16T09:03:03.969Z,101707.16
2019-04-16T09:07:12.165Z,101707.11
2019-04-16T09:11:23.065Z,101711.11
2019-04-16T09:15:21.869Z,101715.22
2019-04-16T09:19:26.506Z,101707.57
2019-04-16T09:23:30.223Z,101706.56
2019-04-16T09:27:44.488Z,101717.78
2019-04-16T09:31:55.085Z,101706.50
2019-04-16T09:35:59.743Z,101701.95
2019-04-16T09:40:16.446Z,101687.95
2019-04-16T09:44:11.336Z,101698.29
2019-04-16T09:48:15.105Z,101698.09
2019-04-16T09:52:19.965Z,101692.16
2019-04-16T09:56:29.879Z,101680.85
2019-04-16T10:00:35.017Z,101690.61
2019-04-16T10:04:38.619Z,101692.25
2019-04-16T10:08:44.934Z,101688.80
2019-04-16T10:12:47.709Z,101678.25
2019-04-16T10:16:51.308Z,101678.02
2019-04-16T10:20:54.916Z,101661.17
2019-04-16T10:25:00.213Z,101673.24
2019-04-16T10:29:06.065Z,101661.20
2019-04-16T10:33:09.955Z,101656.41
2019-04-16T10:37:13.675Z,101647.23
2019-04-16T10:41:18.941Z,101649.78
2019-04-16T10:45:30.248Z,101641.91
2019-04-16T10:49:51.575Z,101636.20
2019-04-16T10:54:02.745Z,101636.63
2019-04-16T10:58:11.077Z,101619.40
2019-04-16T11:02:32.695Z,101626.56
2019-04-16T11:06:37.978Z,101615.30
2019-04-16T11:10:41.855Z,101611.04
2019-04-16T11:14:45.613Z,101613.00
2019-04-16T11:18:49.550Z,101613.99
2019-04-16T11:22:53.228Z,101613.04
2019-04-16T11:26:56.842Z,101615.41
2019-04-16T11:31:17.144Z,101598.06
2019-04-16T11:35:23.093Z,101612.61
2019-04-16T11:39:26.539Z,101609.43
2019-04-16T11:43:30.377Z,101594.60
2019-04-16T11:47:34.872Z,101608.50
2019-04-16T11:51:38.651Z,101600.14
2019-04-16T11:55:42.362Z,101589.00
2019-04-16T11:59:45.952Z,101591.52
2019-04-16T12:03:51.291Z,101595.18
2019-04-16T12:08:08.434Z,101592.95
2019-04-16T12:12:13.677Z,101596.56
2019-04-16T12:16:24.394Z,101611.48
2019-04-16T12:20:45.004Z,101597.75
2019-04-16T12:24:52.908Z,101587.94
2019-04-16T12:28:58.170Z,101593.88
2019-04-16T12:33:07.465Z,101578.06
2019-04-16T12:37:16.676Z,101570.93
2019-04-16T12:41:39.808Z,101592.34
2019-04-16T12:45:45.140Z,101581.27
2019-04-16T12:49:53.265Z,101581.81
2019-04-16T12:54:04.567Z,101582.81
2019-04-16T12:58:10.939Z,101597.76
2019-04-16T13:02:18.953Z,101584.70
2019-04-16T13:06:26.933Z,101567.09
2019-04-16T13:10:33.964Z,101564.92
2019-04-16T13:15:00.465Z,101572.09
2019-04-16T13:19:04.031Z,101574.91
2019-04-16T13:23:24.334Z,101562.65
2019-04-16T13:27:29.599Z,101554.24
2019-04-16T13:31:33.290Z,101565.94
2019-04-16T13:35:37.032Z,101553.11
2019-04-16T13:39:42.378Z,101550.73
2019-04-16T13:43:50.298Z,101546.25
2019-04-16T13:47:56.102Z,101536.34
2019-04-16T13:51:59.778Z,101541.52
2019-04-16T13:56:20.895Z,101531.84
2019-04-16T14:00:28.914Z,101540.61
2019-04-16T14:04:32.632Z,101530.20
2019-04-16T14:08:36.242Z,101538.91
2019-04-16T14:12:42.512Z,101541.45
2019-04-16T14:16:46.439Z,101540.26
2019-04-16T14:20:50.086Z,101535.92
2019-04-16T14:24:53.745Z,101547.69
2019-04-16T14:28:58.635Z,101536.48
2019-04-16T14:33:06.164Z,101534.59
2019-04-16T14:37:07.997Z,101533.64
2019-04-16T14:41:15.759Z,101538.90
2019-04-16T14:45:20.371Z,101531.02
2019-04-16T14:49:25.679Z,101537.16
2019-04-16T14:53:31.272Z,101537.92
2019-04-16T14:57:36.510Z,101544.16
2019-04-16T15:01:48.162Z,101538.75
2019-04-16T15:06:08.676Z,101531.17
2019-04-16T15:10:23.787Z,101538.58
2019-04-16T15:14:32.729Z,101532.29
2019-04-16T15:18:46.809Z,101531.72
2019-04-16T15:22:52.376Z,101528.23
2019-04-16T15:26:57.762Z,101532.55
2019-04-16T15:31:03.296Z,101530.53
2019-04-16T15:35:14.081Z,101537.51
2019-04-16T15:39:17.024Z,101534.23
2019-04-16T15:43:38.807Z,101528.31
2019-04-16T15:47:53.344Z,101538.14
2019-04-16T15:52:15.014Z,101539.25
2019-04-16T15:56:36.779Z,101546.47
2019-04-16T16:00:49.370Z,101548.26
2019-04-16T16:05:00.458Z,101544.84
2019-04-16T16:09:21.486Z,101558.39
2019-04-16T16:13:26.317Z,101549.33
2019-04-16T16:17:31.064Z,101552.00
2019-04-16T16:21:34.678Z,101548.59
2019-04-16T16:25:41.442Z,101549.21
2019-04-16T16:29:44.466Z,101553.27
2019-04-16T16:33:48.007Z,101555.98
2019-04-16T16:37:52.024Z,101549.73
2019-04-16T16:41:57.458Z,101552.91
2019-04-16T16:46:05.793Z,101555.13
2019-04-16T16:50:12.130Z,101561.23
2019-04-16T16:54:28.781Z,101565.83
2019-04-16T16:58:36.723Z,101559.46
2019-04-16T17:02:44.515Z,101562.16
2019-04-16T17:06:48.351Z,101573.17
2019-04-16T17:10:51.946Z,101574.79
2019-04-16T17:14:55.881Z,101575.93
2019-04-16T17:18:59.525Z,101579.20
2019-04-16T17:23:03.401Z,101578.36
2019-04-16T17:27:07.113Z,101572.92
2019-04-16T17:31:10.918Z,101582.32
2019-04-16T17:35:15.936Z,101580.42
2019-04-16T17:39:36.079Z,101583.42
2019-04-16T17:44:01.896Z,101586.58
2019-04-16T17:48:09.112Z,101594.13
2019-04-16T17:52:16.839Z,101590.52
2019-04-16T17:56:38.062Z,101600.00
2019-04-16T18:00:49.772Z,101606.77
2019-04-16T18:04:58.187Z,101610.28
2019-04-16T18:09:19.923Z,101607.76
2019-04-16T18:13:37.875Z,101623.07
2019-04-16T18:17:47.416Z,101615.63
2019-04-16T18:21:55.955Z,101629.55
2019-04-16T18:26:15.676Z,101621.33
2019-04-16T18:30:27.862Z,101634.78
2019-04-16T18:34:33.214Z,101643.07
2019-04-16T18:38:47.477Z,101648.45
2019-04-16T18:42:59.169Z,101658.53
2019-04-16T18:47:16.418Z,101673.36
2019-04-16T18:51:19.954Z,101669.34
2019-04-16T18:55:23.743Z,101676.88
2019-04-16T18:59:27.468Z,101690.38
2019-04-16T19:03:31.182Z,101687.27
2019-04-16T19:07:34.800Z,101692.16
2019-04-16T19:11:38.611Z,101695.93
2019-04-16T19:15:42.236Z,101696.66
2019-04-16T19:19:45.938Z,101704.29
2019-04-16T19:23:49.656Z,101713.66
2019-04-16T19:27:53.269Z,101709.98
2019-04-16T19:31:57.556Z,101704.00
2019-04-16T19:36:01.164Z,101717.14
2019-04-16T19:40:05.340Z,101726.34
2019-04-16T19:44:11.917Z,101728.44
2019-04-16T19:48:17.939Z,101735.84
2019-04-16T19:52:21.102Z,101735.84
2019-04-16T19:56:24.710Z,101740.94
2019-04-16T20:00:28.269Z,101743.79
2019-04-16T20:04:32.042Z,101752.46
2019-04-16T20:08:39.868Z,101757.66
2019-04-16T20:12:41.115Z,101744.58
2019-04-16T20:16:44.730Z,101744.58
2019-04-16T20:20:50.188Z,101756.69
2019-04-16T20:24:53.801Z,101747.98
2019-04-16T20:28:57.499Z,101781.02
2019-04-16T20:33:01.504Z,101755.34
2019-04-16T20:37:05.255Z,101769.64
2019-04-16T20:41:08.865Z,101767.86
2019-04-16T20:45:12.786Z,101771.64
2019-04-16T20:49:18.412Z,101765.67
2019-04-16T20:53:21.756Z,101764.84
2019-04-16T20:57:26.411Z,101766.88
2019-04-16T21:01:35.184Z,101773.30
2019-04-16T21:05:36.680Z,101774.41
2019-04-16T21:09:40.411Z,101779.20
2019-04-16T21:13:44.054Z,101778.99
2019-04-16T21:17:49.687Z,101784.69
2019-04-16T21:21:56.513Z,101789.71
2019-04-16T21:25:58.643Z,101785.74
2019-04-16T21:30:03.862Z,101789.73
2019-04-16T21:34:09.262Z,101796.64
2019-04-16T21:38:14.513Z,101802.25
2019-04-16T21:42:18.128Z,101799.83
2019-04-16T21:46:21.741Z,101805.09
2019-04-16T21:50:25.459Z,101804.95
2019-04-16T21:54:30.502Z,101812.05
2019-04-16T21:58:34.739Z,101817.94
2019-04-16T22:02:39.987Z,101818.17
2019-04-16T22:06:43.702Z,101815.44
2019-04-16T22:10:47.421Z,101819.75
2019-04-16T22:14:54.416Z,101825.19
2019-04-16T22:18:56.595Z,101823.37
2019-04-16T22:23:00.753Z,101827.61
2019-04-16T22:27:06.963Z,101841.40
2019-04-16T22:31:09.893Z,101834.91
2019-04-16T22:35:13.723Z,101841.40
2019-04-16T22:39:18.966Z,101841.38
2019-04-16T22:43:29.742Z,101853.67
2019-04-16T22:47:35.004Z,101842.95
2019-04-16T22:51:39.826Z,101843.42
2019-04-16T22:55:44.065Z,101850.33
2019-04-16T22:59:47.653Z,101855.21
2019-04-16T23:03:53.374Z,101850.13
2019-04-16T23:07:56.853Z,101858.98
2019-04-16T23:12:00.801Z,101854.35
2019-04-16T23:16:04.674Z,101860.66
2019-04-16T23:20:09.535Z,101855.20
2019-04-16T23:24:13.177Z,101862.01
2019-04-16T23:28:16.868Z,101864.90
2019-04-16T23:32:20.481Z,101872.00
2019-04-16T23:36:24.097Z,101868.94
2019-04-16T23:40:27.680Z,101869.88
2019-04-16T23:44:47.713Z,101870.41
2019-04-16T23:49:02.091Z,101868.88
2019-04-16T23:53:08.974Z,101871.13
2019-04-16T23:57:16.882Z,101866.25
